Impacts METAR Board
IDs:

KPHL - Philadelphia Intl, PA, US

Updated at: 1200 UTC 16 Sep 2019
Potential Impact None Slight Moderate High
Time 16/00Z 16/01Z 16/02Z 16/03Z 16/04Z 16/05Z 16/06Z 16/07Z 16/08Z 16/09Z 16/10Z 16/11Z 16/12Z
Temp79 75 73 72 69 69 70 68 68 68 68 68 70
Dewpt52 54 55 57 62 62 61 60 59 61 61 58 58
Altim30.09 30.09 30.09 30.09 30.10 30.09 30.09 30.08 30.07 30.07 30.07 30.08 30.08
VIS10 10 10 10 10 10 10 10 10 10 10 10 10
CIG-- -- -- 280 280 120 120 -- -- 100 110 -- --
CoverFEWFEWSCTBKNBKNBKNBKNSCTSCTBKNBKNSCTSCT
FltCatVFRVFRVFRVFRVFRVFRVFRVFRVFRVFRVFRVFRVFR
WX--------------------------
WDir3403400018019024022024022003300
WSpd5 4 0 0 3 4 3 3 4 3 0 4 0
WGst-- -- -- -- -- -- -- -- -- -- -- -- --
Raw hourly METARs
KPHL 152354Z 34005KT 10SM FEW270 26/11 A3009 RMK AO2 SLP189 T02610111 10289 20261 58001 $
KPHL 160054Z 34004KT 10SM FEW270 24/12 A3009 RMK AO2 SLP190 T02390122 $
KPHL 160154Z 00000KT 10SM SCT140 SCT300 23/13 A3009 RMK AO2 SLP189 T02280128 $
KPHL 160254Z 00000KT 10SM SCT220 BKN280 22/14 A3009 RMK AO2 SLP190 T02220139 51001 $
KPHL 160354Z 18003KT 10SM SCT110 BKN280 21/17 A3010 RMK AO2 SLP191 T02060167 $
KPHL 160454Z 19004KT 10SM BKN120 BKN280 21/17 A3009 RMK SLP187 T02060167 402890200
KPHL 160554Z 24003KT 10SM BKN120 BKN280 21/16 A3009 RMK AO2 SLP188 T02110161 10261 20200 57002 $
KPHL 160654Z 22003KT 10SM SCT110 SCT160 20/16 A3008 RMK AO2 SLP184 T02000156 $
KPHL 160754Z 24004KT 10SM SCT110 20/15 A3007 RMK AO2 SLP183 T02000150 $
KPHL 160854Z 22003KT 10SM BKN100 20/16 A3007 RMK AO2 SLP183 T02000161 55005 $
KPHL 160954Z 00000KT 10SM BKN110 20/16 A3007 RMK AO2 SLP181 T02000161 $
KPHL 161054Z 33004KT 10SM SCT110 20/14 A3008 RMK AO2 SLP185 T02000144 $
KPHL 161154Z 00000KT 10SM SCT120 21/14 A3008 RMK AO2 SLP186 T02110144 10217 20194 53003



Page loaded:  12:09 UTC  |   05:09 AM Pacific  |   06:09 AM Mountain  |   07:09 AM Central  |   08:09 AM Eastern

 

ADVISORIES

FORECASTS

FORECASTS

OBSERVATIONS

USER TOOLS

ABOUT US